sensor_id;sensor_type;location;lat;lon;timestamp;temperature;humidity
12761;DHT22;6444;49.742;6.114;2023-04-25T00:02:20;10.30;99.90
12761;DHT22;6444;49.742;6.114;2023-04-25T00:04:47;10.20;99.90
12761;DHT22;6444;49.742;6.114;2023-04-25T00:07:13;10.50;99.90
12761;DHT22;6444;49.742;6.114;2023-04-25T00:09:40;10.20;99.90
12761;DHT22;6444;49.742;6.114;2023-04-25T00:12:06;9.90;99.90
12761;DHT22;6444;49.742;6.114;2023-04-25T00:14:33;10.00;99.90
12761;DHT22;6444;49.742;6.114;2023-04-25T00:17:00;9.90;99.90
12761;DHT22;6444;49.742;6.114;2023-04-25T00:19:26;9.60;99.90
12761;DHT22;6444;49.742;6.114;2023-04-25T00:21:54;10.20;99.90
12761;DHT22;6444;49.742;6.114;2023-04-25T00:24:20;10.00;99.90
12761;DHT22;6444;49.742;6.114;2023-04-25T00:26:46;9.50;99.90
12761;DHT22;6444;49.742;6.114;2023-04-25T00:29:13;9.20;99.90
12761;DHT22;6444;49.742;6.114;2023-04-25T00:31:39;8.90;99.90
12761;DHT22;6444;49.742;6.114;2023-04-25T00:34:06;8.50;99.90
12761;DHT22;6444;49.742;6.114;2023-04-25T00:36:33;8.60;99.90
12761;DHT22;6444;49.742;6.114;2023-04-25T00:38:59;8.90;99.90
12761;DHT22;6444;49.742;6.114;2023-04-25T00:41:26;9.20;99.90
12761;DHT22;6444;49.742;6.114;2023-04-25T00:43:53;9.10;99.90
12761;DHT22;6444;49.742;6.114;2023-04-25T00:46:19;9.10;99.90
12761;DHT22;6444;49.742;6.114;2023-04-25T00:48:46;8.80;99.90
12761;DHT22;6444;49.742;6.114;2023-04-25T00:51:21;9.00;99.90
12761;DHT22;6444;49.742;6.114;2023-04-25T00:53:48;9.50;99.90
12761;DHT22;6444;49.742;6.114;2023-04-25T00:56:15;10.30;99.90
12761;DHT22;6444;49.742;6.114;2023-04-25T00:58:42;10.30;99.90
12761;DHT22;6444;49.742;6.114;2023-04-25T01:01:08;10.20;99.90
12761;DHT22;6444;49.742;6.114;2023-04-25T01:03:35;10.40;99.90
12761;DHT22;6444;49.742;6.114;2023-04-25T01:06:02;10.40;99.90
12761;DHT22;6444;49.742;6.114;2023-04-25T01:08:29;10.30;99.90
12761;DHT22;6444;49.742;6.114;2023-04-25T01:10:56;10.40;99.90
12761;DHT22;6444;49.742;6.114;2023-04-25T01:13:22;10.20;99.90
12761;DHT22;6444;49.742;6.114;2023-04-25T01:15:49;10.10;99.90
12761;DHT22;6444;49.742;6.114;2023-04-25T01:18:16;10.60;99.90
12761;DHT22;6444;49.742;6.114;2023-04-25T01:20:42;10.50;99.90
12761;DHT22;6444;49.742;6.114;2023-04-25T01:23:09;10.20;99.90
12761;DHT22;6444;49.742;6.114;2023-04-25T01:25:35;10.60;99.90
12761;DHT22;6444;49.742;6.114;2023-04-25T01:28:03;10.40;99.90
12761;DHT22;6444;49.742;6.114;2023-04-25T01:30:30;10.40;99.90
12761;DHT22;6444;49.742;6.114;2023-04-25T01:32:58;10.50;99.90
12761;DHT22;6444;49.742;6.114;2023-04-25T01:35:24;10.00;99.90
12761;DHT22;6444;49.742;6.114;2023-04-25T01:37:51;9.30;99.90
12761;DHT22;6444;49.742;6.114;2023-04-25T01:40:18;9.20;99.90
12761;DHT22;6444;49.742;6.114;2023-04-25T01:42:45;9.10;99.90
12761;DHT22;6444;49.742;6.114;2023-04-25T01:45:12;9.00;99.90
12761;DHT22;6444;49.742;6.114;2023-04-25T01:47:38;9.60;99.90
12761;DHT22;6444;49.742;6.114;2023-04-25T01:50:07;9.50;99.90
12761;DHT22;6444;49.742;6.114;2023-04-25T01:52:32;9.40;99.90
12761;DHT22;6444;49.742;6.114;2023-04-25T01:55:02;9.70;99.90
12761;DHT22;6444;49.742;6.114;2023-04-25T01:57:29;9.50;99.90
12761;DHT22;6444;49.742;6.114;2023-04-25T01:59:59;9.50;99.90
12761;DHT22;6444;49.742;6.114;2023-04-25T02:02:25;9.10;99.90
12761;DHT22;6444;49.742;6.114;2023-04-25T02:04:52;8.80;99.90
12761;DHT22;6444;49.742;6.114;2023-04-25T02:07:19;8.80;99.90
12761;DHT22;6444;49.742;6.114;2023-04-25T02:09:45;8.70;99.90
12761;DHT22;6444;49.742;6.114;2023-04-25T02:12:12;8.40;99.90
12761;DHT22;6444;49.742;6.114;2023-04-25T02:14:39;8.60;99.90
12761;DHT22;6444;49.742;6.114;2023-04-25T02:17:05;8.80;99.90
12761;DHT22;6444;49.742;6.114;2023-04-25T02:19:32;9.00;99.90
12761;DHT22;6444;49.742;6.114;2023-04-25T02:21:58;10.00;99.90
12761;DHT22;6444;49.742;6.114;2023-04-25T02:24:25;10.70;99.90
12761;DHT22;6444;49.742;6.114;2023-04-25T02:26:52;11.20;99.90
12761;DHT22;6444;49.742;6.114;2023-04-25T02:29:18;11.10;99.90
12761;DHT22;6444;49.742;6.114;2023-04-25T02:31:46;11.10;99.90
12761;DHT22;6444;49.742;6.114;2023-04-25T02:34:12;11.10;99.90
12761;DHT22;6444;49.742;6.114;2023-04-25T02:36:39;11.00;99.90
12761;DHT22;6444;49.742;6.114;2023-04-25T02:39:06;10.30;99.90
12761;DHT22;6444;49.742;6.114;2023-04-25T02:41:32;9.80;99.90
12761;DHT22;6444;49.742;6.114;2023-04-25T02:43:59;9.50;99.90
12761;DHT22;6444;49.742;6.114;2023-04-25T02:46:27;9.30;99.90
12761;DHT22;6444;49.742;6.114;2023-04-25T02:48:53;9.20;99.90
12761;DHT22;6444;49.742;6.114;2023-04-25T02:51:20;9.40;99.90
12761;DHT22;6444;49.742;6.114;2023-04-25T02:53:46;9.30;99.90
12761;DHT22;6444;49.742;6.114;2023-04-25T02:56:13;9.30;99.90
12761;DHT22;6444;49.742;6.114;2023-04-25T02:58:40;9.20;99.90
12761;DHT22;6444;49.742;6.114;2023-04-25T03:01:06;9.60;99.90
12761;DHT22;6444;49.742;6.114;2023-04-25T03:03:33;9.60;99.90
12761;DHT22;6444;49.742;6.114;2023-04-25T03:06:00;9.60;99.90
12761;DHT22;6444;49.742;6.114;2023-04-25T03:08:26;9.70;99.90
12761;DHT22;6444;49.742;6.114;2023-04-25T03:10:53;9.10;99.90
12761;DHT22;6444;49.742;6.114;2023-04-25T03:13:19;9.20;99.90
12761;DHT22;6444;49.742;6.114;2023-04-25T03:15:46;9.90;99.90
12761;DHT22;6444;49.742;6.114;2023-04-25T03:18:13;10.40;99.90
12761;DHT22;6444;49.742;6.114;2023-04-25T03:20:39;10.50;99.90
12761;DHT22;6444;49.742;6.114;2023-04-25T03:23:06;10.50;99.90
12761;DHT22;6444;49.742;6.114;2023-04-25T03:25:33;10.90;99.90
12761;DHT22;6444;49.742;6.114;2023-04-25T03:27:59;11.20;99.90
12761;DHT22;6444;49.742;6.114;2023-04-25T03:30:26;11.30;99.90
12761;DHT22;6444;49.742;6.114;2023-04-25T03:32:52;11.30;99.90
12761;DHT22;6444;49.742;6.114;2023-04-25T03:35:20;11.10;99.90
12761;DHT22;6444;49.742;6.114;2023-04-25T03:37:46;11.00;99.90
12761;DHT22;6444;49.742;6.114;2023-04-25T03:40:13;10.90;99.90
12761;DHT22;6444;49.742;6.114;2023-04-25T03:42:40;10.90;99.90
12761;DHT22;6444;49.742;6.114;2023-04-25T03:45:07;10.90;99.90
12761;DHT22;6444;49.742;6.114;2023-04-25T03:47:33;10.50;99.90
12761;DHT22;6444;49.742;6.114;2023-04-25T03:50:01;11.00;99.90
12761;DHT22;6444;49.742;6.114;2023-04-25T03:52:27;11.00;99.90
12761;DHT22;6444;49.742;6.114;2023-04-25T03:54:54;11.00;99.90
12761;DHT22;6444;49.742;6.114;2023-04-25T03:57:20;10.50;99.90
12761;DHT22;6444;49.742;6.114;2023-04-25T03:59:48;10.00;99.90
12761;DHT22;6444;49.742;6.114;2023-04-25T04:02:14;9.90;99.90
12761;DHT22;6444;49.742;6.114;2023-04-25T04:04:41;10.40;99.90
12761;DHT22;6444;49.742;6.114;2023-04-25T04:07:08;10.50;99.90
12761;DHT22;6444;49.742;6.114;2023-04-25T04:09:34;10.20;99.90
12761;DHT22;6444;49.742;6.114;2023-04-25T04:12:01;10.00;99.90
12761;DHT22;6444;49.742;6.114;2023-04-25T04:14:28;10.30;99.90
12761;DHT22;6444;49.742;6.114;2023-04-25T04:16:55;10.30;99.90
12761;DHT22;6444;49.742;6.114;2023-04-25T04:19:22;10.60;99.90
12761;DHT22;6444;49.742;6.114;2023-04-25T04:21:58;10.70;99.90
12761;DHT22;6444;49.742;6.114;2023-04-25T04:24:30;10.80;99.90
12761;DHT22;6444;49.742;6.114;2023-04-25T04:27:00;10.90;99.90
12761;DHT22;6444;49.742;6.114;2023-04-25T04:29:27;10.90;99.90
12761;DHT22;6444;49.742;6.114;2023-04-25T04:31:54;10.80;99.90
12761;DHT22;6444;49.742;6.114;2023-04-25T04:34:21;10.80;99.90
12761;DHT22;6444;49.742;6.114;2023-04-25T04:36:51;10.80;99.90
12761;DHT22;6444;49.742;6.114;2023-04-25T04:39:19;11.00;99.90
12761;DHT22;6444;49.742;6.114;2023-04-25T04:41:50;10.90;99.90
12761;DHT22;6444;49.742;6.114;2023-04-25T04:44:17;10.90;99.90
12761;DHT22;6444;49.742;6.114;2023-04-25T04:46:44;11.00;99.90
12761;DHT22;6444;49.742;6.114;2023-04-25T04:49:17;11.20;99.90
12761;DHT22;6444;49.742;6.114;2023-04-25T04:51:43;11.20;99.90
12761;DHT22;6444;49.742;6.114;2023-04-25T04:54:13;11.30;99.90
12761;DHT22;6444;49.742;6.114;2023-04-25T04:56:39;11.30;99.90
12761;DHT22;6444;49.742;6.114;2023-04-25T04:59:06;11.20;99.90
12761;DHT22;6444;49.742;6.114;2023-04-25T05:01:33;11.10;99.90
12761;DHT22;6444;49.742;6.114;2023-04-25T05:03:59;10.70;99.90
12761;DHT22;6444;49.742;6.114;2023-04-25T05:06:26;10.90;99.90
12761;DHT22;6444;49.742;6.114;2023-04-25T05:08:52;10.70;99.90
12761;DHT22;6444;49.742;6.114;2023-04-25T05:11:19;11.10;99.90
12761;DHT22;6444;49.742;6.114;2023-04-25T05:13:46;11.40;99.90
12761;DHT22;6444;49.742;6.114;2023-04-25T05:16:12;11.00;99.90
12761;DHT22;6444;49.742;6.114;2023-04-25T05:18:39;10.30;99.90
12761;DHT22;6444;49.742;6.114;2023-04-25T05:21:07;10.30;99.90
12761;DHT22;6444;49.742;6.114;2023-04-25T05:23:34;10.90;99.90
12761;DHT22;6444;49.742;6.114;2023-04-25T05:26:05;10.80;99.90
12761;DHT22;6444;49.742;6.114;2023-04-25T05:28:31;10.20;99.90
12761;DHT22;6444;49.742;6.114;2023-04-25T05:30:58;10.00;99.90
12761;DHT22;6444;49.742;6.114;2023-04-25T05:33:25;10.00;99.90
12761;DHT22;6444;49.742;6.114;2023-04-25T05:35:51;10.50;99.90
12761;DHT22;6444;49.742;6.114;2023-04-25T05:38:18;10.80;99.90
12761;DHT22;6444;49.742;6.114;2023-04-25T05:40:46;11.40;99.90
12761;DHT22;6444;49.742;6.114;2023-04-25T05:43:12;12.00;99.90
12761;DHT22;6444;49.742;6.114;2023-04-25T05:45:39;12.40;99.90
12761;DHT22;6444;49.742;6.114;2023-04-25T05:48:06;12.70;99.90
12761;DHT22;6444;49.742;6.114;2023-04-25T05:50:34;12.50;99.90
12761;DHT22;6444;49.742;6.114;2023-04-25T05:53:00;12.70;99.90
12761;DHT22;6444;49.742;6.114;2023-04-25T05:55:27;12.80;99.90
12761;DHT22;6444;49.742;6.114;2023-04-25T05:57:54;12.80;99.90
12761;DHT22;6444;49.742;6.114;2023-04-25T06:00:20;12.90;99.90
12761;DHT22;6444;49.742;6.114;2023-04-25T06:02:47;13.10;99.90
12761;DHT22;6444;49.742;6.114;2023-04-25T06:05:15;12.70;99.90
12761;DHT22;6444;49.742;6.114;2023-04-25T06:07:41;12.60;99.90
12761;DHT22;6444;49.742;6.114;2023-04-25T06:10:08;12.00;99.90
12761;DHT22;6444;49.742;6.114;2023-04-25T06:12:35;12.10;99.90
12761;DHT22;6444;49.742;6.114;2023-04-25T06:15:02;12.60;99.90
12761;DHT22;6444;49.742;6.114;2023-04-25T06:17:28;12.20;99.90
12761;DHT22;6444;49.742;6.114;2023-04-25T06:19:55;12.00;99.90
12761;DHT22;6444;49.742;6.114;2023-04-25T06:22:21;11.60;99.90
12761;DHT22;6444;49.742;6.114;2023-04-25T06:24:48;11.50;99.90
12761;DHT22;6444;49.742;6.114;2023-04-25T06:27:15;10.70;99.90
12761;DHT22;6444;49.742;6.114;2023-04-25T06:29:41;11.00;99.90
12761;DHT22;6444;49.742;6.114;2023-04-25T06:32:08;11.70;99.90
12761;DHT22;6444;49.742;6.114;2023-04-25T06:34:35;12.30;99.90
12761;DHT22;6444;49.742;6.114;2023-04-25T06:37:02;11.30;99.90
12761;DHT22;6444;49.742;6.114;2023-04-25T06:39:29;11.30;99.90
12761;DHT22;6444;49.742;6.114;2023-04-25T06:41:55;12.20;99.90
12761;DHT22;6444;49.742;6.114;2023-04-25T06:44:22;12.90;99.90
12761;DHT22;6444;49.742;6.114;2023-04-25T06:46:49;13.70;99.90
12761;DHT22;6444;49.742;6.114;2023-04-25T06:49:16;13.70;99.90
12761;DHT22;6444;49.742;6.114;2023-04-25T06:51:42;13.90;99.90
12761;DHT22;6444;49.742;6.114;2023-04-25T06:54:09;13.80;99.90
12761;DHT22;6444;49.742;6.114;2023-04-25T06:56:36;13.60;99.90
12761;DHT22;6444;49.742;6.114;2023-04-25T06:59:03;13.60;99.90
12761;DHT22;6444;49.742;6.114;2023-04-25T07:01:30;13.70;99.90
12761;DHT22;6444;49.742;6.114;2023-04-25T07:03:56;13.20;99.90
12761;DHT22;6444;49.742;6.114;2023-04-25T07:06:23;11.60;99.90
12761;DHT22;6444;49.742;6.114;2023-04-25T07:08:50;11.60;99.90
12761;DHT22;6444;49.742;6.114;2023-04-25T07:11:16;12.20;99.90
12761;DHT22;6444;49.742;6.114;2023-04-25T07:13:43;12.80;99.90
12761;DHT22;6444;49.742;6.114;2023-04-25T07:16:10;13.10;99.90
12761;DHT22;6444;49.742;6.114;2023-04-25T07:18:36;13.20;99.90
12761;DHT22;6444;49.742;6.114;2023-04-25T07:21:03;13.20;99.90
12761;DHT22;6444;49.742;6.114;2023-04-25T07:23:29;12.90;99.90
12761;DHT22;6444;49.742;6.114;2023-04-25T07:25:56;13.10;99.90
12761;DHT22;6444;49.742;6.114;2023-04-25T07:28:23;12.50;99.90
12761;DHT22;6444;49.742;6.114;2023-04-25T07:30:49;11.80;99.90
12761;DHT22;6444;49.742;6.114;2023-04-25T07:33:16;11.60;99.90
12761;DHT22;6444;49.742;6.114;2023-04-25T07:35:43;11.90;99.90
12761;DHT22;6444;49.742;6.114;2023-04-25T07:38:09;12.20;99.90
12761;DHT22;6444;49.742;6.114;2023-04-25T07:40:36;12.00;99.90
12761;DHT22;6444;49.742;6.114;2023-04-25T07:43:02;12.20;99.90
12761;DHT22;6444;49.742;6.114;2023-04-25T07:45:29;12.10;99.90
12761;DHT22;6444;49.742;6.114;2023-04-25T07:47:56;11.60;99.90
12761;DHT22;6444;49.742;6.114;2023-04-25T07:50:22;10.60;99.90
12761;DHT22;6444;49.742;6.114;2023-04-25T07:52:49;9.70;99.90
12761;DHT22;6444;49.742;6.114;2023-04-25T07:55:16;10.20;99.90
12761;DHT22;6444;49.742;6.114;2023-04-25T07:57:43;10.10;99.90
12761;DHT22;6444;49.742;6.114;2023-04-25T08:00:10;10.50;99.90
12761;DHT22;6444;49.742;6.114;2023-04-25T08:02:37;10.30;99.90
12761;DHT22;6444;49.742;6.114;2023-04-25T08:05:03;10.90;99.90
12761;DHT22;6444;49.742;6.114;2023-04-25T08:07:30;11.60;99.90
12761;DHT22;6444;49.742;6.114;2023-04-25T08:09:56;11.70;99.90
12761;DHT22;6444;49.742;6.114;2023-04-25T08:12:23;12.40;99.90
12761;DHT22;6444;49.742;6.114;2023-04-25T08:14:49;13.00;99.90
12761;DHT22;6444;49.742;6.114;2023-04-25T08:17:16;13.40;99.90
12761;DHT22;6444;49.742;6.114;2023-04-25T08:19:43;12.80;99.90
12761;DHT22;6444;49.742;6.114;2023-04-25T08:22:09;12.20;99.90
12761;DHT22;6444;49.742;6.114;2023-04-25T08:24:36;12.40;99.90
12761;DHT22;6444;49.742;6.114;2023-04-25T08:27:03;12.10;99.90
12761;DHT22;6444;49.742;6.114;2023-04-25T08:29:29;11.70;99.90
12761;DHT22;6444;49.742;6.114;2023-04-25T08:31:56;12.00;99.90
12761;DHT22;6444;49.742;6.114;2023-04-25T08:34:22;11.10;99.90
12761;DHT22;6444;49.742;6.114;2023-04-25T08:36:49;11.60;99.90
12761;DHT22;6444;49.742;6.114;2023-04-25T08:39:16;12.30;99.90
12761;DHT22;6444;49.742;6.114;2023-04-25T08:41:42;12.40;99.90
12761;DHT22;6444;49.742;6.114;2023-04-25T08:44:12;11.80;99.90
12761;DHT22;6444;49.742;6.114;2023-04-25T08:46:37;12.20;99.90
12761;DHT22;6444;49.742;6.114;2023-04-25T08:49:03;12.20;99.90
12761;DHT22;6444;49.742;6.114;2023-04-25T08:51:31;12.10;99.90
12761;DHT22;6444;49.742;6.114;2023-04-25T08:53:56;12.20;99.90
12761;DHT22;6444;49.742;6.114;2023-04-25T08:56:23;11.80;99.90
12761;DHT22;6444;49.742;6.114;2023-04-25T08:58:49;11.70;99.90
12761;DHT22;6444;49.742;6.114;2023-04-25T09:01:17;11.50;99.90
12761;DHT22;6444;49.742;6.114;2023-04-25T09:03:44;11.50;99.90
12761;DHT22;6444;49.742;6.114;2023-04-25T09:06:10;12.00;99.90
12761;DHT22;6444;49.742;6.114;2023-04-25T09:08:37;10.50;99.90
12761;DHT22;6444;49.742;6.114;2023-04-25T09:11:04;11.30;99.90
12761;DHT22;6444;49.742;6.114;2023-04-25T09:13:31;11.30;99.90
12761;DHT22;6444;49.742;6.114;2023-04-25T09:15:58;11.60;99.90
12761;DHT22;6444;49.742;6.114;2023-04-25T09:18:27;11.70;99.90
12761;DHT22;6444;49.742;6.114;2023-04-25T09:20:54;11.70;99.90
12761;DHT22;6444;49.742;6.114;2023-04-25T09:23:21;11.10;99.90
12761;DHT22;6444;49.742;6.114;2023-04-25T09:25:47;11.00;99.90
12761;DHT22;6444;49.742;6.114;2023-04-25T09:28:13;11.60;99.90
12761;DHT22;6444;49.742;6.114;2023-04-25T09:30:40;11.30;99.90
12761;DHT22;6444;49.742;6.114;2023-04-25T09:33:07;11.00;99.90
12761;DHT22;6444;49.742;6.114;2023-04-25T09:35:37;11.60;99.90
12761;DHT22;6444;49.742;6.114;2023-04-25T09:38:13;11.70;99.90
12761;DHT22;6444;49.742;6.114;2023-04-25T09:40:30;12.10;99.90
12761;DHT22;6444;49.742;6.114;2023-04-25T09:42:56;12.80;99.90
12761;DHT22;6444;49.742;6.114;2023-04-25T09:45:23;12.50;99.90
12761;DHT22;6444;49.742;6.114;2023-04-25T09:47:49;12.40;99.90
12761;DHT22;6444;49.742;6.114;2023-04-25T09:50:16;12.10;99.90
12761;DHT22;6444;49.742;6.114;2023-04-25T09:52:43;12.40;99.90
12761;DHT22;6444;49.742;6.114;2023-04-25T09:55:09;12.40;99.90
12761;DHT22;6444;49.742;6.114;2023-04-25T09:57:36;12.60;99.90
12761;DHT22;6444;49.742;6.114;2023-04-25T10:00:03;13.00;99.90
12761;DHT22;6444;49.742;6.114;2023-04-25T10:02:29;13.30;99.90
12761;DHT22;6444;49.742;6.114;2023-04-25T10:04:56;13.50;99.90
12761;DHT22;6444;49.742;6.114;2023-04-25T10:07:23;13.90;99.90
12761;DHT22;6444;49.742;6.114;2023-04-25T10:09:49;14.30;99.90
12761;DHT22;6444;49.742;6.114;2023-04-25T10:12:16;15.80;99.90
12761;DHT22;6444;49.742;6.114;2023-04-25T10:14:42;17.10;99.90
12761;DHT22;6444;49.742;6.114;2023-04-25T10:17:10;18.30;99.90
12761;DHT22;6444;49.742;6.114;2023-04-25T10:19:36;19.30;99.90
12761;DHT22;6444;49.742;6.114;2023-04-25T10:24:32;22.00;99.90
12761;DHT22;6444;49.742;6.114;2023-04-25T10:26:59;21.90;99.90
12761;DHT22;6444;49.742;6.114;2023-04-25T10:29:25;19.60;99.90
12761;DHT22;6444;49.742;6.114;2023-04-25T10:31:52;18.50;99.90
12761;DHT22;6444;49.742;6.114;2023-04-25T10:34:23;16.80;99.90
12761;DHT22;6444;49.742;6.114;2023-04-25T10:36:52;16.70;99.90
12761;DHT22;6444;49.742;6.114;2023-04-25T10:39:26;15.30;99.90
12761;DHT22;6444;49.742;6.114;2023-04-25T10:41:57;14.30;99.90
12761;DHT22;6444;49.742;6.114;2023-04-25T10:44:28;14.80;99.90
12761;DHT22;6444;49.742;6.114;2023-04-25T10:46:57;15.90;99.90
12761;DHT22;6444;49.742;6.114;2023-04-25T10:49:33;16.70;99.90
12761;DHT22;6444;49.742;6.114;2023-04-25T10:52:18;16.70;99.90
12761;DHT22;6444;49.742;6.114;2023-04-25T10:54:47;16.30;99.90
12761;DHT22;6444;49.742;6.114;2023-04-25T10:57:41;16.10;99.90
12761;DHT22;6444;49.742;6.114;2023-04-25T11:00:08;16.00;99.90
12761;DHT22;6444;49.742;6.114;2023-04-25T11:02:38;16.00;99.90
12761;DHT22;6444;49.742;6.114;2023-04-25T11:05:04;16.00;99.90
12761;DHT22;6444;49.742;6.114;2023-04-25T11:07:44;16.30;99.90
12761;DHT22;6444;49.742;6.114;2023-04-25T11:10:06;16.20;99.90
12761;DHT22;6444;49.742;6.114;2023-04-25T11:12:33;16.20;99.90
12761;DHT22;6444;49.742;6.114;2023-04-25T11:15:02;15.50;99.90
12761;DHT22;6444;49.742;6.114;2023-04-25T11:17:26;16.10;99.90
12761;DHT22;6444;49.742;6.114;2023-04-25T11:19:53;16.70;99.90
12761;DHT22;6444;49.742;6.114;2023-04-25T11:22:19;16.60;99.90
12761;DHT22;6444;49.742;6.114;2023-04-25T11:24:46;15.60;99.90
12761;DHT22;6444;49.742;6.114;2023-04-25T11:27:13;14.80;99.90
12761;DHT22;6444;49.742;6.114;2023-04-25T11:29:40;14.20;99.90
12761;DHT22;6444;49.742;6.114;2023-04-25T11:32:06;14.10;99.90
12761;DHT22;6444;49.742;6.114;2023-04-25T11:34:33;13.30;99.90
12761;DHT22;6444;49.742;6.114;2023-04-25T11:37:02;12.30;99.90
12761;DHT22;6444;49.742;6.114;2023-04-25T11:39:29;12.80;99.90
12761;DHT22;6444;49.742;6.114;2023-04-25T11:41:55;13.50;99.90
12761;DHT22;6444;49.742;6.114;2023-04-25T11:44:22;13.50;99.90
12761;DHT22;6444;49.742;6.114;2023-04-25T11:46:48;14.30;99.90
12761;DHT22;6444;49.742;6.114;2023-04-25T11:49:15;15.00;99.90
12761;DHT22;6444;49.742;6.114;2023-04-25T11:51:42;15.70;99.90
12761;DHT22;6444;49.742;6.114;2023-04-25T11:54:08;16.30;99.90
12761;DHT22;6444;49.742;6.114;2023-04-25T11:56:36;14.40;99.90
12761;DHT22;6444;49.742;6.114;2023-04-25T11:59:03;14.40;99.90
12761;DHT22;6444;49.742;6.114;2023-04-25T12:01:30;14.70;99.90
12761;DHT22;6444;49.742;6.114;2023-04-25T12:03:56;14.30;99.90
12761;DHT22;6444;49.742;6.114;2023-04-25T12:06:26;14.80;99.90
12761;DHT22;6444;49.742;6.114;2023-04-25T12:09:04;14.60;99.90
12761;DHT22;6444;49.742;6.114;2023-04-25T12:11:30;14.60;99.90
12761;DHT22;6444;49.742;6.114;2023-04-25T12:14:01;13.20;99.90
12761;DHT22;6444;49.742;6.114;2023-04-25T12:16:24;12.10;99.90
12761;DHT22;6444;49.742;6.114;2023-04-25T12:18:51;12.30;99.90
12761;DHT22;6444;49.742;6.114;2023-04-25T12:21:17;12.90;99.90
12761;DHT22;6444;49.742;6.114;2023-04-25T12:23:44;12.40;99.90
12761;DHT22;6444;49.742;6.114;2023-04-25T12:26:11;12.30;99.90
12761;DHT22;6444;49.742;6.114;2023-04-25T12:28:37;12.90;99.90
12761;DHT22;6444;49.742;6.114;2023-04-25T12:31:07;14.00;99.90
12761;DHT22;6444;49.742;6.114;2023-04-25T12:33:36;15.20;99.90
12761;DHT22;6444;49.742;6.114;2023-04-25T12:36:05;16.00;99.90
12761;DHT22;6444;49.742;6.114;2023-04-25T12:38:38;16.70;99.90
12761;DHT22;6444;49.742;6.114;2023-04-25T12:41:04;17.20;99.90
12761;DHT22;6444;49.742;6.114;2023-04-25T12:43:31;17.60;99.90
12761;DHT22;6444;49.742;6.114;2023-04-25T12:45:57;17.80;99.90
12761;DHT22;6444;49.742;6.114;2023-04-25T12:48:24;18.00;99.90
12761;DHT22;6444;49.742;6.114;2023-04-25T12:50:51;17.20;99.90
12761;DHT22;6444;49.742;6.114;2023-04-25T12:53:18;17.50;99.90
12761;DHT22;6444;49.742;6.114;2023-04-25T12:55:44;18.10;99.90
12761;DHT22;6444;49.742;6.114;2023-04-25T12:58:10;18.40;99.90
12761;DHT22;6444;49.742;6.114;2023-04-25T13:00:38;17.70;99.80
12761;DHT22;6444;49.742;6.114;2023-04-25T13:03:04;17.70;99.70
12761;DHT22;6444;49.742;6.114;2023-04-25T13:05:31;15.30;99.90
12761;DHT22;6444;49.742;6.114;2023-04-25T13:07:58;13.20;99.90
12761;DHT22;6444;49.742;6.114;2023-04-25T13:10:28;13.10;99.90
12761;DHT22;6444;49.742;6.114;2023-04-25T13:12:54;13.50;99.90
12761;DHT22;6444;49.742;6.114;2023-04-25T13:15:22;13.60;99.90
12761;DHT22;6444;49.742;6.114;2023-04-25T13:17:48;13.50;99.90
12761;DHT22;6444;49.742;6.114;2023-04-25T13:20:15;13.00;99.90
12761;DHT22;6444;49.742;6.114;2023-04-25T13:22:41;12.40;99.90
12761;DHT22;6444;49.742;6.114;2023-04-25T13:25:09;14.40;99.90
12761;DHT22;6444;49.742;6.114;2023-04-25T13:27:36;14.30;99.90
12761;DHT22;6444;49.742;6.114;2023-04-25T13:30:03;15.60;99.90
12761;DHT22;6444;49.742;6.114;2023-04-25T13:32:29;15.50;99.90
12761;DHT22;6444;49.742;6.114;2023-04-25T13:34:55;15.70;99.90
12761;DHT22;6444;49.742;6.114;2023-04-25T13:37:23;16.40;99.60
12761;DHT22;6444;49.742;6.114;2023-04-25T13:39:49;16.40;99.60
12761;DHT22;6444;49.742;6.114;2023-04-25T13:42:16;17.00;99.60
12761;DHT22;6444;49.742;6.114;2023-04-25T13:44:43;16.70;98.10
12761;DHT22;6444;49.742;6.114;2023-04-25T13:47:09;16.80;98.80
12761;DHT22;6444;49.742;6.114;2023-04-25T13:49:37;15.80;99.50
12761;DHT22;6444;49.742;6.114;2023-04-25T13:52:03;15.70;99.40
12761;DHT22;6444;49.742;6.114;2023-04-25T13:54:30;16.70;99.20
12761;DHT22;6444;49.742;6.114;2023-04-25T13:56:56;17.50;98.00
12761;DHT22;6444;49.742;6.114;2023-04-25T13:59:24;17.20;96.10
12761;DHT22;6444;49.742;6.114;2023-04-25T14:01:51;17.10;96.00
12761;DHT22;6444;49.742;6.114;2023-04-25T14:04:17;15.70;99.10
12761;DHT22;6444;49.742;6.114;2023-04-25T14:06:47;15.80;98.10
12761;DHT22;6444;49.742;6.114;2023-04-25T14:09:13;16.40;98.40
12761;DHT22;6444;49.742;6.114;2023-04-25T14:11:40;16.20;97.00
12761;DHT22;6444;49.742;6.114;2023-04-25T14:14:07;13.10;99.60
12761;DHT22;6444;49.742;6.114;2023-04-25T14:16:34;13.10;99.60
12761;DHT22;6444;49.742;6.114;2023-04-25T14:19:00;13.20;99.90
12761;DHT22;6444;49.742;6.114;2023-04-25T14:21:27;14.00;99.90
12761;DHT22;6444;49.742;6.114;2023-04-25T14:23:54;14.60;98.80
12761;DHT22;6444;49.742;6.114;2023-04-25T14:26:20;14.40;98.30
12761;DHT22;6444;49.742;6.114;2023-04-25T14:28:47;14.70;96.30
12761;DHT22;6444;49.742;6.114;2023-04-25T14:31:14;14.60;98.10
12761;DHT22;6444;49.742;6.114;2023-04-25T14:33:40;15.30;97.30
12761;DHT22;6444;49.742;6.114;2023-04-25T14:36:07;15.10;96.20
12761;DHT22;6444;49.742;6.114;2023-04-25T14:38:33;14.40;96.90
12761;DHT22;6444;49.742;6.114;2023-04-25T14:41:00;13.50;97.10
12761;DHT22;6444;49.742;6.114;2023-04-25T14:43:27;12.50;98.30
12761;DHT22;6444;49.742;6.114;2023-04-25T14:45:53;13.50;99.40
12761;DHT22;6444;49.742;6.114;2023-04-25T14:48:20;14.40;99.10
12761;DHT22;6444;49.742;6.114;2023-04-25T14:50:47;15.40;98.30
12761;DHT22;6444;49.742;6.114;2023-04-25T14:53:13;16.00;96.80
12761;DHT22;6444;49.742;6.114;2023-04-25T14:55:40;16.10;96.40
12761;DHT22;6444;49.742;6.114;2023-04-25T14:58:06;16.50;97.10
12761;DHT22;6444;49.742;6.114;2023-04-25T15:00:33;16.60;97.00
12761;DHT22;6444;49.742;6.114;2023-04-25T15:03:00;16.80;96.80
12761;DHT22;6444;49.742;6.114;2023-04-25T15:05:26;16.30;96.50
12761;DHT22;6444;49.742;6.114;2023-04-25T15:07:54;16.00;96.90
12761;DHT22;6444;49.742;6.114;2023-04-25T15:10:21;16.00;96.90
12761;DHT22;6444;49.742;6.114;2023-04-25T15:12:47;16.20;96.90
12761;DHT22;6444;49.742;6.114;2023-04-25T15:15:16;14.60;97.20
12761;DHT22;6444;49.742;6.114;2023-04-25T15:17:44;15.10;97.20
12761;DHT22;6444;49.742;6.114;2023-04-25T15:20:11;15.00;97.20
12761;DHT22;6444;49.742;6.114;2023-04-25T15:22:38;15.50;97.00
12761;DHT22;6444;49.742;6.114;2023-04-25T15:25:04;15.90;96.80
12761;DHT22;6444;49.742;6.114;2023-04-25T15:27:31;16.20;95.90
12761;DHT22;6444;49.742;6.114;2023-04-25T15:29:58;16.20;95.80
12761;DHT22;6444;49.742;6.114;2023-04-25T15:32:24;16.00;94.90
12761;DHT22;6444;49.742;6.114;2023-04-25T15:34:51;14.80;95.50
12761;DHT22;6444;49.742;6.114;2023-04-25T15:37:17;14.30;97.50
12761;DHT22;6444;49.742;6.114;2023-04-25T15:39:44;14.60;96.30
12761;DHT22;6444;49.742;6.114;2023-04-25T15:42:11;12.90;97.00
12761;DHT22;6444;49.742;6.114;2023-04-25T15:44:37;12.40;99.00
12761;DHT22;6444;49.742;6.114;2023-04-25T15:47:04;12.50;99.50
12761;DHT22;6444;49.742;6.114;2023-04-25T15:49:31;13.40;99.40